Time;durP1;ratioP1;P1;durP2;ratioP2;P2;SDS_P1;SDS_P2;PMS_P1;PMS_P2;Temp;Humidity;BMP_temperature;BMP_pressure;BME280_temperature;BME280_humidity;BME280_pressure;Samples;Min_cycle;Max_cycle;Signal;HPM_P1;HPM_P2
2020/12/03 00:01:06;;;;;;;5.88;3.92;;;;;;;;;;5048499;28;20040;-81
2020/12/03 00:03:42;;;;;;;9.80;3.65;;;;;;;;;;5040882;28;20191;-77
2020/12/03 00:06:14;;;;;;;6.63;3.72;;;;;;;;;;5040669;28;20045;-80
2020/12/03 00:08:41;;;;;;;5.85;3.30;;;;;;;;;;5039186;28;20411;-78
2020/12/03 00:11:08;;;;;;;6.20;3.42;;;;;;;;;;5040342;28;20114;-80
2020/12/03 00:13:35;;;;;;;7.57;3.70;;;;;;;;;;5042988;28;20053;-79
2020/12/03 00:16:02;;;;;;;7.90;3.85;;;;;;;;;;5044181;28;20045;-78
2020/12/03 00:18:29;;;;;;;8.13;3.47;;;;;;;;;;5041222;28;20045;-78
2020/12/03 00:20:56;;;;;;;5.93;3.67;;;;;;;;;;5042131;28;20050;-77
2020/12/03 00:23:22;;;;;;;7.70;4.13;;;;;;;;;;5038386;28;20073;-78
2020/12/03 00:25:50;;;;;;;6.35;3.60;;;;;;;;;;5037299;28;20045;-77
2020/12/03 00:28:16;;;;;;;6.10;2.92;;;;;;;;;;5037667;28;20053;-79
2020/12/03 00:30:45;;;;;;;6.90;3.33;;;;;;;;;;5038648;28;20130;-78
2020/12/03 00:33:12;;;;;;;6.97;3.75;;;;;;;;;;5040475;28;20226;-79
2020/12/03 00:35:53;;;;;;;7.13;3.40;;;;;;;;;;5039717;28;20491;-77
2020/12/03 00:38:20;;;;;;;5.35;3.33;;;;;;;;;;5044233;28;20045;-78
2020/12/03 00:40:46;;;;;;;4.88;2.83;;;;;;;;;;5037242;28;20053;-78
2020/12/03 00:43:15;;;;;;;6.55;3.60;;;;;;;;;;5034134;28;20057;-78
2020/12/03 00:45:41;;;;;;;4.72;3.08;;;;;;;;;;5038358;28;20049;-77
2020/12/03 00:48:08;;;;;;;6.88;3.33;;;;;;;;;;5034123;28;20132;-80
2020/12/03 00:50:34;;;;;;;5.70;3.08;;;;;;;;;;5040682;28;20060;-80
2020/12/03 00:53:01;;;;;;;5.05;3.08;;;;;;;;;;5040918;28;20059;-78
2020/12/03 00:55:27;;;;;;;4.47;2.83;;;;;;;;;;5037888;28;20481;-78
2020/12/03 00:57:53;;;;;;;5.00;3.05;;;;;;;;;;5040954;28;20041;-78
2020/12/03 01:00:21;;;;;;;4.38;2.90;;;;;;;;;;5038252;28;20045;-79
2020/12/03 01:02:49;;;;;;;;;;;;;;;;;;5045595;28;20064;-78
2020/12/03 01:05:16;;;;;;;4.95;3.08;;;;;;;;;;5048640;28;19925;-79
2020/12/03 01:07:44;;;;;;;5.20;2.85;;;;;;;;;;5040284;28;20049;-82
2020/12/03 01:10:20;;;;;;;6.53;2.97;;;;;;;;;;5042355;28;20041;-81
2020/12/03 01:12:46;;;;;;;5.00;3.03;;;;;;;;;;5042006;28;20045;-81
2020/12/03 01:15:13;;;;;;;4.90;2.78;;;;;;;;;;5042763;28;20048;-83
2020/12/03 01:17:40;;;;;;;5.57;2.95;;;;;;;;;;5042555;28;20045;-82
2020/12/03 01:20:08;;;;;;;4.43;2.65;;;;;;;;;;5046365;28;20045;-82
2020/12/03 01:22:34;;;;;;;4.30;2.88;;;;;;;;;;5041631;28;20052;-82
2020/12/03 01:25:03;;;;;;;4.65;2.83;;;;;;;;;;5044420;28;20123;-78
2020/12/03 01:27:31;;;;;;;3.50;2.28;;;;;;;;;;5038972;28;20060;-78
2020/12/03 01:29:58;;;;;;;4.50;2.85;;;;;;;;;;5043788;28;20046;-80
2020/12/03 01:32:24;;;;;;;4.97;2.60;;;;;;;;;;5034801;28;20053;-80
2020/12/03 01:34:53;;;;;;;5.18;2.67;;;;;;;;;;5036451;28;20410;-81
2020/12/03 01:37:19;;;;;;;3.88;2.67;;;;;;;;;;5034506;28;20053;-80
2020/12/03 01:39:48;;;;;;;4.32;2.70;;;;;;;;;;5040430;28;20527;-80
2020/12/03 01:42:15;;;;;;;6.30;2.97;;;;;;;;;;5041138;28;20087;-79
2020/12/03 01:44:46;;;;;;;4.72;2.75;;;;;;;;;;5039262;28;20049;-83
2020/12/03 01:47:16;;;;;;;4.88;2.50;;;;;;;;;;5036798;28;20071;-83
2020/12/03 01:49:42;;;;;;;;;;;;;;;;;;5034439;28;20045;-80
2020/12/03 01:52:08;;;;;;;4.40;2.50;;;;;;;;;;5037035;28;20508;-80
2020/12/03 01:54:34;;;;;;;3.50;2.42;;;;;;;;;;5035784;28;20045;-80
2020/12/03 01:57:03;;;;;;;5.45;2.63;;;;;;;;;;5039886;28;20060;-81
2020/12/03 01:59:37;;;;;;;5.38;2.75;;;;;;;;;;5038282;28;20052;-80
2020/12/03 02:02:04;;;;;;;4.25;2.45;;;;;;;;;;5032783;28;20049;-81
2020/12/03 02:04:31;;;;;;;4.57;2.40;;;;;;;;;;5036575;28;20555;-80
2020/12/03 02:07:02;;;;;;;6.60;3.03;;;;;;;;;;5043158;28;20047;-81
2020/12/03 02:09:28;;;;;;;3.42;2.20;;;;;;;;;;5036554;28;20513;-80
2020/12/03 02:11:56;;;;;;;3.97;2.70;;;;;;;;;;5035615;28;20048;-81
2020/12/03 02:14:22;;;;;;;4.97;2.30;;;;;;;;;;5033205;28;20048;-80
2020/12/03 02:16:53;;;;;;;3.60;2.33;;;;;;;;;;5039962;28;20041;-79
2020/12/03 02:19:21;;;;;;;4.97;2.50;;;;;;;;;;5032913;28;20067;-79
2020/12/03 02:21:59;;;;;;;3.38;2.17;;;;;;;;;;5040180;28;20052;-79
2020/12/03 02:24:26;;;;;;;4.93;2.70;;;;;;;;;;5037708;28;20049;-79
2020/12/03 02:26:53;;;;;;;4.47;2.78;;;;;;;;;;5037828;28;20057;-78
2020/12/03 02:29:19;;;;;;;4.93;2.90;;;;;;;;;;5037294;28;20045;-80
2020/12/03 02:31:46;;;;;;;5.43;2.67;;;;;;;;;;5039495;28;20053;-81
2020/12/03 02:34:13;;;;;;;4.47;2.25;;;;;;;;;;5034463;28;20049;-80
2020/12/03 02:36:39;;;;;;;11.10;2.60;;;;;;;;;;5036009;28;20491;-80
2020/12/03 02:39:05;;;;;;;3.42;2.20;;;;;;;;;;5035824;28;20051;-81
2020/12/03 02:41:32;;;;;;;4.68;2.60;;;;;;;;;;5032061;28;20042;-82
2020/12/03 02:43:58;;;;;;;3.03;2.38;;;;;;;;;;5031836;28;20052;-84
2020/12/03 02:46:24;;;;;;;4.38;2.50;;;;;;;;;;5034261;28;20095;-84
2020/12/03 02:48:51;;;;;;;5.32;2.53;;;;;;;;;;5041878;28;20044;-81
2020/12/03 02:51:17;;;;;;;5.38;2.50;;;;;;;;;;5038683;28;20045;-80
2020/12/03 02:53:43;;;;;;;2.65;1.90;;;;;;;;;;5033790;28;20045;-83
2020/12/03 02:56:12;;;;;;;4.13;2.40;;;;;;;;;;5034078;28;20042;-82
2020/12/03 02:58:38;;;;;;;6.10;2.80;;;;;;;;;;5031738;28;20495;-82
2020/12/03 03:01:04;;;;;;;3.40;2.03;;;;;;;;;;5038305;28;20045;-83
2020/12/03 03:03:30;;;;;;;4.38;2.55;;;;;;;;;;5035599;28;20048;-82
2020/12/03 03:05:57;;;;;;;3.90;2.20;;;;;;;;;;5037787;28;20060;-83
2020/12/03 03:08:23;;;;;;;3.28;1.90;;;;;;;;;;5034362;28;20501;-84
2020/12/03 03:10:50;;;;;;;4.00;2.35;;;;;;;;;;5030723;28;20048;-82
2020/12/03 03:13:16;;;;;;;3.72;2.15;;;;;;;;;;5033072;28;20503;-79
2020/12/03 03:15:42;;;;;;;3.45;2.35;;;;;;;;;;5039259;28;20139;-78
2020/12/03 03:18:09;;;;;;;3.95;2.22;;;;;;;;;;5032719;28;20045;-78
2020/12/03 03:20:35;;;;;;;3.63;2.05;;;;;;;;;;5039261;28;20115;-77
2020/12/03 03:23:01;;;;;;;4.47;2.20;;;;;;;;;;5035410;28;20041;-79
2020/12/03 03:25:27;;;;;;;3.72;2.10;;;;;;;;;;5036532;28;20518;-76
2020/12/03 03:27:53;;;;;;;4.68;2.20;;;;;;;;;;5036018;28;20479;-79
2020/12/03 03:30:20;;;;;;;4.45;2.63;;;;;;;;;;5034196;28;20053;-78
2020/12/03 03:32:46;;;;;;;4.07;2.22;;;;;;;;;;5037294;28;20551;-78
2020/12/03 03:35:16;;;;;;;3.70;2.22;;;;;;;;;;5040627;28;20438;-78
2020/12/03 03:37:42;;;;;;;7.07;2.58;;;;;;;;;;5040437;28;20045;-79
2020/12/03 03:40:09;;;;;;;3.55;2.20;;;;;;;;;;5039239;28;20142;-77
2020/12/03 03:42:37;;;;;;;3.97;1.92;;;;;;;;;;5036204;28;20050;-79
2020/12/03 03:45:05;;;;;;;3.83;2.08;;;;;;;;;;5040956;28;20049;-79
2020/12/03 03:47:31;;;;;;;5.13;2.33;;;;;;;;;;5039059;28;20138;-78
2020/12/03 03:49:57;;;;;;;3.72;2.15;;;;;;;;;;5040369;28;20049;-80
2020/12/03 03:52:24;;;;;;;7.97;2.20;;;;;;;;;;5038713;28;20053;-80
2020/12/03 03:54:50;;;;;;;3.50;2.15;;;;;;;;;;5045183;28;20517;-79
2020/12/03 03:57:16;;;;;;;3.70;2.15;;;;;;;;;;5035722;28;20495;-80
2020/12/03 03:59:42;;;;;;;3.72;2.13;;;;;;;;;;5039791;28;20046;-79
2020/12/03 04:02:08;;;;;;;2.95;2.10;;;;;;;;;;5038418;28;20594;-78
2020/12/03 04:04:34;;;;;;;3.97;2.10;;;;;;;;;;5039701;28;20048;-79
2020/12/03 04:07:00;;;;;;;5.80;2.40;;;;;;;;;;5037787;28;20517;-78
2020/12/03 04:09:26;;;;;;;4.55;1.75;;;;;;;;;;5042698;28;20076;-78
2020/12/03 04:11:53;;;;;;;3.33;1.92;;;;;;;;;;5034980;28;20041;-79
2020/12/03 04:14:20;;;;;;;4.35;2.05;;;;;;;;;;5045693;28;20536;-79
2020/12/03 04:16:46;;;;;;;3.22;2.20;;;;;;;;;;5036561;28;20053;-80
2020/12/03 04:19:12;;;;;;;3.85;1.98;;;;;;;;;;5035885;28;20060;-79
2020/12/03 04:21:38;;;;;;;3.65;1.95;;;;;;;;;;5033535;28;20053;-79
2020/12/03 04:24:04;;;;;;;4.53;2.38;;;;;;;;;;5037906;28;20053;-79
2020/12/03 04:26:30;;;;;;;4.78;2.30;;;;;;;;;;5037768;28;20060;-85
2020/12/03 04:28:56;;;;;;;4.28;2.30;;;;;;;;;;5041308;28;20045;-87
2020/12/03 04:31:23;;;;;;;5.00;2.00;;;;;;;;;;5046243;28;20064;-86
2020/12/03 04:33:49;;;;;;;3.53;1.98;;;;;;;;;;5037242;28;20491;-86
2020/12/03 04:36:16;;;;;;;4.25;2.00;;;;;;;;;;5044723;28;20053;-86
2020/12/03 04:38:42;;;;;;;5.18;2.45;;;;;;;;;;5035373;28;20418;-87
2020/12/03 04:41:08;;;;;;;4.50;2.33;;;;;;;;;;5037089;28;20044;-86
2020/12/03 04:43:42;;;;;;;3.70;1.83;;;;;;;;;;5038082;28;20053;-85
2020/12/03 04:46:34;;;;;;;5.30;2.25;;;;;;;;;;5039134;28;20048;-85
2020/12/03 04:49:25;;;;;;;4.28;2.03;;;;;;;;;;5028409;28;20056;-85
2020/12/03 04:51:52;;;;;;;3.72;2.10;;;;;;;;;;5039360;28;20049;-85
2020/12/03 04:54:18;;;;;;;5.07;2.47;;;;;;;;;;5039711;28;20056;-82
2020/12/03 04:57:17;;;;;;;6.18;1.98;;;;;;;;;;5039010;28;20044;-81
2020/12/03 04:59:47;;;;;;;3.58;2.22;;;;;;;;;;5032345;28;20050;-80
2020/12/03 05:02:19;;;;;;;4.30;1.90;;;;;;;;;;5037335;28;20140;-88
2020/12/03 05:04:55;;;;;;;4.85;2.25;;;;;;;;;;5044156;28;20056;-89
2020/12/03 05:07:24;;;;;;;4.15;2.17;;;;;;;;;;5039858;28;20048;-90
2020/12/03 05:10:07;;;;;;;4.20;2.28;;;;;;;;;;5040673;28;20052;-90
2020/12/03 05:12:37;;;;;;;2.85;1.90;;;;;;;;;;5033413;28;20071;-88
2020/12/03 05:15:12;;;;;;;3.47;2.20;;;;;;;;;;5035686;28;20041;-82
2020/12/03 05:17:43;;;;;;;3.78;2.10;;;;;;;;;;5038455;28;20041;-82
2020/12/03 05:20:28;;;;;;;2.75;1.88;;;;;;;;;;5037775;28;20409;-88
2020/12/03 05:23:13;;;;;;;3.65;2.28;;;;;;;;;;5036869;28;20045;-83
2020/12/03 05:25:39;;;;;;;2.83;1.73;;;;;;;;;;5037527;28;20406;-84
2020/12/03 05:28:22;;;;;;;4.78;2.08;;;;;;;;;;5034872;28;20060;-81
2020/12/03 05:30:49;;;;;;;4.00;2.10;;;;;;;;;;5039357;28;20046;-83
2020/12/03 05:33:15;;;;;;;2.75;1.88;;;;;;;;;;5032542;28;20040;-82
2020/12/03 05:35:41;;;;;;;3.30;2.00;;;;;;;;;;5034734;28;20140;-81
2020/12/03 05:38:22;;;;;;;2.42;1.83;;;;;;;;;;5039636;28;20053;-81
2020/12/03 05:41:00;;;;;;;4.80;2.15;;;;;;;;;;5035125;28;20528;-82
2020/12/03 05:43:27;;;;;;;2.78;1.73;;;;;;;;;;5039465;28;20052;-82
2020/12/03 05:45:53;;;;;;;2.25;1.42;;;;;;;;;;5042302;28;20045;-82
2020/12/03 05:48:19;;;;;;;2.75;1.80;;;;;;;;;;5035202;28;20045;-82
2020/12/03 05:50:55;;;;;;;2.63;1.65;;;;;;;;;;5041239;28;20128;-82
2020/12/03 05:53:24;;;;;;;2.95;1.63;;;;;;;;;;5037459;28;20045;-83
2020/12/03 05:55:50;;;;;;;2.88;1.70;;;;;;;;;;5034909;28;20052;-86
2020/12/03 05:58:17;;;;;;;3.42;2.15;;;;;;;;;;5041827;28;20062;-83
2020/12/03 06:00:44;;;;;;;2.03;1.60;;;;;;;;;;5036340;28;20049;-82
2020/12/03 06:03:29;;;;;;;3.42;1.83;;;;;;;;;;5042545;28;20053;-83
2020/12/03 06:05:58;;;;;;;4.78;1.90;;;;;;;;;;5033494;28;20072;-83
2020/12/03 06:08:42;;;;;;;2.37;1.50;;;;;;;;;;5036042;28;20061;-84
2020/12/03 06:11:14;;;;;;;3.92;1.88;;;;;;;;;;5038367;28;20294;-83
2020/12/03 06:13:53;;;;;;;3.22;1.88;;;;;;;;;;5033380;28;20049;-85
2020/12/03 06:16:28;;;;;;;2.65;1.75;;;;;;;;;;5033047;28;20518;-81
2020/12/03 06:18:59;;;;;;;3.03;1.83;;;;;;;;;;5034586;28;20216;-84
2020/12/03 06:21:35;;;;;;;3.45;1.65;;;;;;;;;;5036541;28;20041;-86
2020/12/03 06:24:07;;;;;;;3.60;2.00;;;;;;;;;;5036551;28;20049;-82
2020/12/03 06:26:55;;;;;;;2.80;1.77;;;;;;;;;;5042491;28;20048;-86
2020/12/03 06:29:34;;;;;;;2.78;2.00;;;;;;;;;;5041250;28;20052;-85
2020/12/03 06:32:15;;;;;;;4.15;2.17;;;;;;;;;;5038840;28;20056;-84
2020/12/03 06:34:43;;;;;;;4.47;1.88;;;;;;;;;;5035239;28;20064;-82
2020/12/03 06:37:17;;;;;;;2.33;1.60;;;;;;;;;;5033275;28;20052;-86
2020/12/03 06:39:48;;;;;;;6.13;1.58;;;;;;;;;;5031117;28;20049;-82
2020/12/03 06:42:22;;;;;;;3.13;1.77;;;;;;;;;;5031318;28;20053;-84
2020/12/03 06:44:58;;;;;;;4.00;2.83;;;;;;;;;;5040015;28;20052;-83
2020/12/03 06:47:28;;;;;;;3.85;1.50;;;;;;;;;;5037815;28;20064;-82
2020/12/03 06:50:06;;;;;;;3.50;1.75;;;;;;;;;;5039216;28;20414;-84
2020/12/03 06:52:42;;;;;;;7.40;1.90;;;;;;;;;;5037235;28;20132;-85
2020/12/03 06:55:28;;;;;;;5.97;1.60;;;;;;;;;;5038671;28;20080;-82
2020/12/03 06:57:54;;;;;;;4.75;1.83;;;;;;;;;;5034365;28;20050;-83
2020/12/03 07:00:39;;;;;;;4.25;1.90;;;;;;;;;;5042001;28;20475;-83
2020/12/03 07:03:27;;;;;;;11.07;1.67;;;;;;;;;;5038471;28;20045;-83
2020/12/03 07:05:55;;;;;;;;;;;;;;;;;;5037128;28;20053;-81
2020/12/03 07:08:21;;;;;;;4.22;1.83;;;;;;;;;;5034741;28;20321;-82
2020/12/03 07:11:06;;;;;;;3.85;2.15;;;;;;;;;;5034520;28;20050;-80
2020/12/03 07:13:51;;;;;;;2.92;1.55;;;;;;;;;;5039319;28;20052;-84
2020/12/03 07:16:56;;;;;;;7.57;1.77;;;;;;;;;;5039840;28;20037;-88
2020/12/03 07:19:41;;;;;;;2.25;1.27;;;;;;;;;;5036903;28;20448;-86
2020/12/03 07:22:25;;;;;;;3.00;2.08;;;;;;;;;;5035406;28;20414;-84
2020/12/03 07:24:55;;;;;;;2.83;1.63;;;;;;;;;;5039546;28;20148;-83
2020/12/03 07:27:21;;;;;;;;;;;;;;;;;;5037800;28;20080;-81
2020/12/03 07:30:00;;;;;;;3.53;2.60;;;;;;;;;;5035355;28;20421;-81
2020/12/03 07:32:39;;;;;;;4.18;2.40;;;;;;;;;;5035799;28;20056;-84
2020/12/03 07:35:20;;;;;;;4.50;2.80;;;;;;;;;;5036295;28;20045;-84
2020/12/03 07:37:50;;;;;;;5.25;2.50;;;;;;;;;;5042245;28;20047;-83
2020/12/03 07:40:20;;;;;;;25.88;3.10;;;;;;;;;;5032586;28;20495;-86
2020/12/03 07:42:49;;;;;;;7.15;3.22;;;;;;;;;;5037417;28;20766;-81
2020/12/03 07:45:47;;;;;;;3.78;2.95;;;;;;;;;;5034820;28;20050;-81
2020/12/03 07:48:21;;;;;;;11.80;3.45;;;;;;;;;;5026745;28;20053;-80
2020/12/03 07:50:50;;;;;;;8.40;4.38;;;;;;;;;;5036402;28;20052;-80
2020/12/03 07:53:20;;;;;;;4.35;3.00;;;;;;;;;;5033581;28;20138;-80
2020/12/03 07:55:47;;;;;;;5.25;2.75;;;;;;;;;;5038608;28;20045;-81
2020/12/03 07:58:35;;;;;;;4.22;3.00;;;;;;;;;;5032303;28;20049;-81
2020/12/03 08:01:02;;;;;;;4.25;2.67;;;;;;;;;;5034349;28;20041;-81
2020/12/03 08:03:35;;;;;;;4.45;3.03;;;;;;;;;;5034674;28;20049;-80
2020/12/03 08:06:10;;;;;;;5.00;2.72;;;;;;;;;;5041008;28;20037;-82
2020/12/03 08:08:37;;;;;;;4.22;2.70;;;;;;;;;;5040180;28;20481;-81
2020/12/03 08:11:04;;;;;;;4.13;2.85;;;;;;;;;;5037150;28;20040;-80
2020/12/03 08:13:30;;;;;;;4.78;2.75;;;;;;;;;;5036315;28;20052;-81
2020/12/03 08:15:58;;;;;;;4.53;2.65;;;;;;;;;;5032507;28;20184;-77
2020/12/03 08:18:41;;;;;;;3.55;2.80;;;;;;;;;;5039037;28;20047;-75
2020/12/03 08:21:09;;;;;;;4.45;2.70;;;;;;;;;;5040587;28;20045;-82
2020/12/03 08:23:35;;;;;;;4.65;2.70;;;;;;;;;;5037733;28;20060;-80
2020/12/03 08:26:01;;;;;;;5.15;3.47;;;;;;;;;;5032670;28;20049;-81
2020/12/03 08:28:29;;;;;;;5.80;3.28;;;;;;;;;;5041755;28;20045;-81
2020/12/03 08:30:55;;;;;;;6.20;2.70;;;;;;;;;;5046186;28;20053;-82
2020/12/03 08:33:26;;;;;;;4.97;3.00;;;;;;;;;;5040508;28;20453;-80
2020/12/03 08:35:57;;;;;;;4.70;2.90;;;;;;;;;;5033482;28;20414;-82
2020/12/03 08:38:27;;;;;;;5.65;3.53;;;;;;;;;;5039134;28;20087;-80
2020/12/03 08:40:56;;;;;;;3.88;2.50;;;;;;;;;;5035220;28;20507;-79
2020/12/03 08:43:23;;;;;;;5.85;2.67;;;;;;;;;;5040202;28;20049;-79
2020/12/03 08:45:54;;;;;;;4.22;2.47;;;;;;;;;;5041252;28;20053;-78
2020/12/03 08:48:24;;;;;;;5.43;2.63;;;;;;;;;;5036033;28;20057;-79
2020/12/03 08:50:55;;;;;;;5.03;3.00;;;;;;;;;;5033602;28;20057;-79
2020/12/03 08:53:21;;;;;;;6.03;3.10;;;;;;;;;;5036289;28;20053;-79
2020/12/03 08:55:47;;;;;;;7.47;2.90;;;;;;;;;;5038763;28;20053;-78
2020/12/03 08:58:19;;;;;;;7.13;3.55;;;;;;;;;;5037379;28;20509;-77
2020/12/03 09:00:45;;;;;;;5.32;2.80;;;;;;;;;;5033904;28;20124;-77
2020/12/03 09:03:13;;;;;;;6.55;2.80;;;;;;;;;;5031557;28;20329;-78
2020/12/03 09:05:43;;;;;;;6.60;3.30;;;;;;;;;;5037289;28;20041;-77
2020/12/03 09:08:15;;;;;;;5.43;3.40;;;;;;;;;;5038772;28;20060;-79
2020/12/03 09:10:42;;;;;;;4.78;2.88;;;;;;;;;;5036542;28;20055;-77
2020/12/03 09:13:11;;;;;;;5.05;3.50;;;;;;;;;;5038934;28;20047;-77
2020/12/03 09:15:37;;;;;;;7.18;3.33;;;;;;;;;;5038021;28;20049;-80
2020/12/03 09:18:05;;;;;;;6.75;2.75;;;;;;;;;;5040429;28;20487;-77
2020/12/03 09:20:31;;;;;;;4.45;2.85;;;;;;;;;;5046159;28;20037;-76
2020/12/03 09:22:57;;;;;;;6.18;3.65;;;;;;;;;;5038517;28;20052;-81
2020/12/03 09:25:31;;;;;;;6.03;3.50;;;;;;;;;;5038922;28;20053;-79
2020/12/03 09:28:02;;;;;;;9.65;3.65;;;;;;;;;;5038263;28;20457;-81
2020/12/03 09:30:28;;;;;;;9.18;3.33;;;;;;;;;;5038250;28;20060;-89
2020/12/03 09:32:58;;;;;;;8.55;3.05;;;;;;;;;;5035108;28;20053;-91
2020/12/03 09:35:24;;;;;;;;;;;;;;;;;;5039004;28;20055;-91
2020/12/03 09:37:54;;;;;;;7.80;2.85;;;;;;;;;;5043553;28;19921;-88
2020/12/03 09:40:21;;;;;;;10.38;4.22;;;;;;;;;;5039065;28;20048;-88
2020/12/03 09:42:51;;;;;;;11.38;3.63;;;;;;;;;;5043113;28;20049;-87
2020/12/03 09:45:39;;;;;;;6.40;3.50;;;;;;;;;;5042886;28;20053;-88
2020/12/03 09:48:10;;;;;;;6.25;4.43;;;;;;;;;;5042216;28;20055;-89
2020/12/03 09:50:39;;;;;;;6.70;3.25;;;;;;;;;;5040870;28;20482;-90
2020/12/03 09:53:06;;;;;;;7.40;3.60;;;;;;;;;;5045744;28;20139;-90
2020/12/03 09:55:32;;;;;;;8.00;3.42;;;;;;;;;;5041316;28;20498;-91
2020/12/03 09:58:00;;;;;;;7.00;4.30;;;;;;;;;;5036376;28;20100;-90
2020/12/03 10:00:38;;;;;;;9.85;3.38;;;;;;;;;;5039655;28;20068;-90
2020/12/03 10:03:13;;;;;;;7.72;3.35;;;;;;;;;;5038278;28;20391;-88
2020/12/03 10:05:39;;;;;;;6.45;3.78;;;;;;;;;;5042212;28;20045;-89
2020/12/03 10:08:08;;;;;;;10.80;3.65;;;;;;;;;;5038320;28;20057;-89
2020/12/03 10:10:36;;;;;;;13.30;4.72;;;;;;;;;;5037990;28;20041;-94
2020/12/03 10:13:02;;;;;;;6.90;3.33;;;;;;;;;;5041985;28;20048;-84
2020/12/03 10:15:47;;;;;;;6.82;3.30;;;;;;;;;;5046244;28;20041;-83
2020/12/03 10:18:18;;;;;;;7.63;4.07;;;;;;;;;;5033710;28;20049;-77
2020/12/03 10:20:47;;;;;;;9.05;2.83;;;;;;;;;;5035304;28;20049;-76
2020/12/03 10:23:15;;;;;;;6.63;3.35;;;;;;;;;;5039813;28;20513;-76
2020/12/03 10:25:49;;;;;;;5.72;3.05;;;;;;;;;;5035321;28;20046;-77
2020/12/03 10:28:28;;;;;;;8.55;3.40;;;;;;;;;;5043454;28;20063;-77
2020/12/03 10:30:56;;;;;;;6.57;3.38;;;;;;;;;;5040010;28;20061;-77
2020/12/03 10:33:26;;;;;;;5.63;2.67;;;;;;;;;;5040155;28;20055;-78
2020/12/03 10:35:56;;;;;;;5.78;3.15;;;;;;;;;;5043019;28;20067;-78
2020/12/03 10:38:32;;;;;;;5.43;2.42;;;;;;;;;;5034301;28;20487;-79
2020/12/03 10:40:59;;;;;;;8.90;3.53;;;;;;;;;;5040126;28;20076;-78
2020/12/03 10:43:30;;;;;;;6.32;2.97;;;;;;;;;;5031328;28;20418;-78
2020/12/03 10:45:59;;;;;;;5.38;2.60;;;;;;;;;;5043620;28;20076;-77
2020/12/03 10:48:30;;;;;;;5.22;3.00;;;;;;;;;;5038311;28;20049;-75
2020/12/03 10:50:57;;;;;;;8.20;3.13;;;;;;;;;;5031004;28;20049;-77
2020/12/03 10:53:26;;;;;;;;;;;;;;;;;;5036131;28;20668;-76
2020/12/03 10:55:57;;;;;;;4.95;2.58;;;;;;;;;;5033486;28;20363;-76
2020/12/03 10:58:32;;;;;;;4.88;3.08;;;;;;;;;;5034985;28;20084;-75
2020/12/03 11:01:04;;;;;;;9.90;5.10;;;;;;;;;;5033478;28;20049;-74
2020/12/03 11:03:32;;;;;;;7.57;3.92;;;;;;;;;;5036576;28;20041;-74
2020/12/03 11:05:58;;;;;;;8.15;4.57;;;;;;;;;;5035011;28;20491;-82
2020/12/03 11:08:25;;;;;;;8.60;4.43;;;;;;;;;;5034276;28;20111;-80
2020/12/03 11:10:52;;;;;;;7.43;3.80;;;;;;;;;;5040211;28;20037;-81
2020/12/03 11:13:20;;;;;;;6.80;4.80;;;;;;;;;;5035208;28;20049;-74
2020/12/03 11:15:47;;;;;;;7.43;3.97;;;;;;;;;;5037745;28;20041;-75
2020/12/03 11:18:18;;;;;;;7.55;3.70;;;;;;;;;;5034075;28;20618;-74
2020/12/03 11:21:03;;;;;;;7.70;3.88;;;;;;;;;;5039197;28;20052;-75
2020/12/03 11:23:31;;;;;;;9.35;5.15;;;;;;;;;;5038235;28;20053;-75
2020/12/03 11:26:03;;;;;;;6.72;4.53;;;;;;;;;;5034228;28;20157;-75
2020/12/03 11:28:30;;;;;;;8.65;4.65;;;;;;;;;;5035129;28;20056;-76
2020/12/03 11:31:03;;;;;;;9.80;4.25;;;;;;;;;;5031122;28;20056;-76
2020/12/03 11:33:33;;;;;;;7.80;4.78;;;;;;;;;;5036860;28;20091;-76
2020/12/03 11:36:06;;;;;;;5.45;3.90;;;;;;;;;;5041011;28;20041;-82
2020/12/03 11:38:32;;;;;;;8.00;4.38;;;;;;;;;;5038711;28;20060;-85
2020/12/03 11:41:42;;;;;;;8.25;4.00;;;;;;;;;;5041619;28;20064;-82
2020/12/03 11:49:29;;;;;;;8.85;3.80;;;;;;;;;;5042343;28;20517;-84
2020/12/03 11:52:16;;;;;;;6.93;4.57;;;;;;;;;;5043996;28;20055;-86
2020/12/03 11:54:45;;;;;;;8.10;4.13;;;;;;;;;;5042436;28;20037;-81
2020/12/03 11:57:20;;;;;;;8.02;4.13;;;;;;;;;;5042277;28;20068;-79
2020/12/03 11:59:46;;;;;;;8.93;3.83;;;;;;;;;;5043646;28;22315;-81
2020/12/03 12:02:12;;;;;;;9.32;3.55;;;;;;;;;;5039812;28;20052;-80
2020/12/03 12:04:58;;;;;;;7.55;4.13;;;;;;;;;;5043750;28;20045;-80
2020/12/03 12:12:35;;;;;;;7.97;4.07;;;;;;;;;;5039424;28;20057;-80
2020/12/03 12:15:03;;;;;;;8.00;4.43;;;;;;;;;;5038957;28;20045;-80
2020/12/03 12:17:35;;;;;;;8.48;4.53;;;;;;;;;;5041255;28;20052;-79
2020/12/03 12:20:06;;;;;;;7.63;4.55;;;;;;;;;;5041507;28;20053;-81
2020/12/03 12:22:32;;;;;;;9.10;4.75;;;;;;;;;;5036843;28;20052;-80
2020/12/03 12:24:58;;;;;;;7.13;4.35;;;;;;;;;;5038272;28;20083;-81
2020/12/03 12:27:25;;;;;;;9.50;4.68;;;;;;;;;;5036548;28;20071;-81
2020/12/03 12:29:51;;;;;;;7.75;3.97;;;;;;;;;;5035140;28;20049;-80
2020/12/03 12:32:17;;;;;;;6.65;3.30;;;;;;;;;;5040837;28;20057;-81
2020/12/03 12:34:44;;;;;;;7.00;4.05;;;;;;;;;;5040310;28;20502;-81
2020/12/03 12:37:10;;;;;;;7.35;4.53;;;;;;;;;;5039396;28;20085;-82
2020/12/03 12:39:36;;;;;;;7.15;4.05;;;;;;;;;;5038046;28;20075;-85
2020/12/03 12:42:04;;;;;;;7.70;4.53;;;;;;;;;;5036257;28;20164;-86
2020/12/03 12:44:30;;;;;;;7.93;4.10;;;;;;;;;;5038712;28;20072;-85
2020/12/03 12:46:57;;;;;;;7.13;4.35;;;;;;;;;;5035735;28;20045;-84
2020/12/03 12:49:23;;;;;;;6.38;3.95;;;;;;;;;;5039730;28;20049;-85
2020/12/03 12:51:50;;;;;;;6.53;3.88;;;;;;;;;;5040607;28;20259;-85
2020/12/03 12:54:18;;;;;;;9.02;4.13;;;;;;;;;;5039521;28;20491;-84
2020/12/03 12:56:47;;;;;;;6.80;4.07;;;;;;;;;;5037940;28;20111;-85
2020/12/03 12:59:14;;;;;;;6.07;3.78;;;;;;;;;;5042035;28;20411;-85
2020/12/03 13:01:47;;;;;;;6.47;4.10;;;;;;;;;;5039231;28;20060;-84
2020/12/03 13:04:13;;;;;;;9.30;3.83;;;;;;;;;;5038819;28;20045;-83
2020/12/03 13:06:40;;;;;;;9.05;4.65;;;;;;;;;;5037276;28;20041;-86
2020/12/03 13:09:08;;;;;;;6.82;4.13;;;;;;;;;;5036264;28;20419;-84
2020/12/03 13:11:34;;;;;;;7.80;4.47;;;;;;;;;;5037069;28;20174;-82
2020/12/03 13:14:00;;;;;;;8.57;4.30;;;;;;;;;;5037020;28;20052;-83
2020/12/03 13:16:27;;;;;;;7.50;4.45;;;;;;;;;;5039079;28;20538;-85
2020/12/03 13:18:53;;;;;;;5.53;3.72;;;;;;;;;;5042549;28;20049;-83
2020/12/03 13:21:19;;;;;;;5.53;3.78;;;;;;;;;;5035825;28;20057;-84
2020/12/03 13:23:45;;;;;;;6.65;3.55;;;;;;;;;;5038361;28;20044;-83
2020/12/03 13:26:12;;;;;;;7.63;3.88;;;;;;;;;;5035291;28;20071;-74
2020/12/03 13:28:38;;;;;;;6.20;3.58;;;;;;;;;;5033371;28;20049;-79
2020/12/03 13:31:04;;;;;;;5.47;3.03;;;;;;;;;;5041549;28;20055;-80
2020/12/03 13:33:31;;;;;;;6.40;3.97;;;;;;;;;;5031792;28;20045;-79
2020/12/03 13:35:57;;;;;;;7.25;3.42;;;;;;;;;;5041842;28;20419;-79
2020/12/03 13:38:23;;;;;;;4.55;2.88;;;;;;;;;;5035429;28;20045;-80
2020/12/03 13:40:49;;;;;;;5.90;3.60;;;;;;;;;;5039938;28;20041;-80
2020/12/03 13:43:15;;;;;;;8.10;3.83;;;;;;;;;;5034586;28;20053;-80
2020/12/03 13:45:42;;;;;;;5.65;3.30;;;;;;;;;;5035176;28;20067;-79
2020/12/03 13:48:08;;;;;;;8.15;3.60;;;;;;;;;;5041119;28;20053;-79
2020/12/03 13:50:34;;;;;;;6.22;3.55;;;;;;;;;;5039912;28;20041;-78
2020/12/03 13:53:00;;;;;;;6.55;3.58;;;;;;;;;;5036247;28;20487;-79
2020/12/03 13:55:26;;;;;;;6.28;3.70;;;;;;;;;;5033677;28;20056;-81
2020/12/03 13:57:53;;;;;;;5.20;3.13;;;;;;;;;;5034738;28;20499;-80
2020/12/03 14:00:19;;;;;;;7.50;3.90;;;;;;;;;;5033255;28;20467;-80
2020/12/03 14:02:45;;;;;;;8.05;3.67;;;;;;;;;;5038354;28;20054;-81
2020/12/03 14:05:12;;;;;;;7.07;3.92;;;;;;;;;;5035095;28;20617;-79
2020/12/03 14:07:49;;;;;;;6.22;3.65;;;;;;;;;;5036649;28;20049;-78
2020/12/03 14:10:16;;;;;;;6.90;3.58;;;;;;;;;;5037145;28;20051;-76
2020/12/03 14:12:42;;;;;;;6.63;3.90;;;;;;;;;;5038033;28;20045;-76
2020/12/03 14:15:08;;;;;;;6.93;3.92;;;;;;;;;;5036950;28;20045;-79
2020/12/03 14:17:34;;;;;;;8.02;3.58;;;;;;;;;;5036780;28;20045;-74
2020/12/03 14:20:03;;;;;;;9.68;4.75;;;;;;;;;;5037692;28;20053;-75
2020/12/03 14:22:31;;;;;;;9.48;3.97;;;;;;;;;;5036236;28;20558;-76
2020/12/03 14:25:00;;;;;;;8.17;4.20;;;;;;;;;;5037791;28;20102;-75
2020/12/03 14:27:26;;;;;;;7.68;3.65;;;;;;;;;;5042162;28;20045;-76
2020/12/03 14:29:55;;;;;;;6.57;3.20;;;;;;;;;;5039212;28;20048;-75
2020/12/03 14:32:21;;;;;;;9.05;3.40;;;;;;;;;;5034343;28;20049;-76
2020/12/03 14:34:47;;;;;;;9.75;4.05;;;;;;;;;;5035346;28;20059;-76
2020/12/03 14:37:16;;;;;;;7.60;3.80;;;;;;;;;;5030718;28;20053;-76
2020/12/03 14:39:42;;;;;;;7.32;3.67;;;;;;;;;;5031667;28;20057;-76
2020/12/03 14:42:09;;;;;;;5.45;2.88;;;;;;;;;;5036007;28;20049;-76
2020/12/03 14:44:38;;;;;;;9.95;3.83;;;;;;;;;;5043807;28;20493;-76
2020/12/03 14:47:04;;;;;;;6.40;3.53;;;;;;;;;;5030727;28;20045;-76
2020/12/03 14:49:38;;;;;;;10.10;4.20;;;;;;;;;;5032147;28;20049;-76
2020/12/03 14:52:08;;;;;;;5.22;3.20;;;;;;;;;;5030788;28;20068;-76
2020/12/03 14:54:35;;;;;;;9.45;3.42;;;;;;;;;;5030119;28;20053;-75
2020/12/03 14:57:02;;;;;;;7.40;2.85;;;;;;;;;;5029191;28;20501;-76
2020/12/03 14:59:30;;;;;;;7.32;3.92;;;;;;;;;;5035245;28;20063;-75
2020/12/03 15:01:56;;;;;;;7.43;3.75;;;;;;;;;;5040770;28;20504;-76
2020/12/03 15:04:22;;;;;;;7.18;3.10;;;;;;;;;;5036203;28;20064;-76
2020/12/03 15:06:53;;;;;;;5.63;3.25;;;;;;;;;;5037407;28;20045;-76
2020/12/03 15:09:19;;;;;;;6.70;3.67;;;;;;;;;;5031598;28;20508;-76
2020/12/03 15:11:52;;;;;;;7.43;3.30;;;;;;;;;;5030094;28;20137;-77